Albee, South Dakota
Current Conditions -  °F | °C
As of 1:54 PM on Saturday 20 Dec 2014 (Local Time) from KDXX Reporting Station
Haze Haze  
Wind Chill: 30°   Ceiling: Unl
Heat Index: 36°   Visibility: 5mi
Dew Point: 34°   Wind: 7mph
Humidity: 93%   Direction: 200°SSW
Pressure: 30.02"   Gusts: NA
Location:  45.0205°N, 96.5453°W
Report Text: KDXX 201954Z AUTO 20006KT 5SM BR CLR 02/01 A3002 RMK AO2
Loading
Personal Weather Stations






























Interactive Weather Map New forecast layout! Learn more

10-Day Weather Forecast

Advertisements
Track Severe Weather on mobile